Time;durP1;ratioP1;P1;durP2;ratioP2;P2;SDS_P1;SDS_P2;PMS_P1;PMS_P2;Temp;Humidity;BMP_temperature;BMP_pressure;BME280_temperature;BME280_humidity;BME280_pressure;Samples;Min_cycle;Max_cycle;Signal;HPM_P1;HPM_P2
2022/06/05 00:02:16;;;;;;;9.55;6.30;;;;;;;;;;10271896;28;20277;-68
2022/06/05 00:07:30;;;;;;;12.43;6.50;;;;;;;;;;10293607;28;20105;-68
2022/06/05 00:12:39;;;;;;;12.73;6.85;;;;;;;;;;10295610;28;20133;-68
2022/06/05 00:17:41;;;;;;;12.45;6.60;;;;;;;;;;10294690;28;20047;-67
2022/06/05 00:22:46;;;;;;;13.77;6.00;;;;;;;;;;10295123;28;20097;-67
2022/06/05 00:27:59;;;;;;;11.50;6.30;;;;;;;;;;10291617;28;20107;-68
2022/06/05 00:33:08;;;;;;;10.88;5.97;;;;;;;;;;10292017;28;20043;-68
2022/06/05 00:38:18;;;;;;;8.95;5.75;;;;;;;;;;10290972;28;20062;-67
2022/06/05 00:43:24;;;;;;;11.82;6.05;;;;;;;;;;10290110;28;20047;-68
2022/06/05 00:48:26;;;;;;;10.27;6.30;;;;;;;;;;10276999;28;20066;-67
2022/06/05 00:53:30;;;;;;;12.13;6.35;;;;;;;;;;10289827;28;20039;-67
2022/06/05 00:58:33;;;;;;;12.50;6.33;;;;;;;;;;10290004;28;20086;-68
2022/06/05 01:03:36;;;;;;;11.70;6.30;;;;;;;;;;10289442;28;20043;-68
2022/06/05 01:08:39;;;;;;;12.07;6.38;;;;;;;;;;10275631;28;20061;-67
2022/06/05 01:13:53;;;;;;;12.20;6.50;;;;;;;;;;10289098;28;20047;-68
2022/06/05 01:19:07;;;;;;;10.60;6.13;;;;;;;;;;10275089;29;20113;-68
2022/06/05 01:24:23;;;;;;;16.20;6.80;;;;;;;;;;10276067;28;20385;-68
2022/06/05 01:29:34;;;;;;;15.00;6.72;;;;;;;;;;10274189;29;20353;-71
2022/06/05 01:34:43;;;;;;;16.33;6.72;;;;;;;;;;10289010;28;20106;-68
2022/06/05 01:39:48;;;;;;;13.40;7.50;;;;;;;;;;10288567;28;20110;-67
2022/06/05 01:44:57;;;;;;;13.35;6.50;;;;;;;;;;10288199;28;20043;-66
2022/06/05 01:50:02;;;;;;;11.43;7.05;;;;;;;;;;10287927;28;20279;-67
2022/06/05 01:55:08;;;;;;;11.27;6.95;;;;;;;;;;10275490;28;20167;-67
2022/06/05 02:00:17;;;;;;;14.32;8.00;;;;;;;;;;10287868;28;20074;-68
2022/06/05 02:05:23;;;;;;;21.75;8.07;;;;;;;;;;10281941;28;20360;-67
2022/06/05 02:10:29;;;;;;;17.08;7.60;;;;;;;;;;10287287;28;20390;-67
2022/06/05 02:15:33;;;;;;;16.23;7.70;;;;;;;;;;10286544;28;20361;-68
2022/06/05 02:20:35;;;;;;;13.85;8.35;;;;;;;;;;10286265;28;20059;-68
2022/06/05 02:25:37;;;;;;;17.65;8.93;;;;;;;;;;10285739;28;20341;-67
2022/06/05 02:30:47;;;;;;;16.05;7.93;;;;;;;;;;10275617;28;20065;-67
2022/06/05 02:36:06;;;;;;;13.57;7.57;;;;;;;;;;10286322;28;20063;-68
2022/06/05 02:41:13;;;;;;;13.60;7.85;;;;;;;;;;10273610;28;20055;-67
2022/06/05 02:46:27;;;;;;;15.32;8.45;;;;;;;;;;10286069;28;20062;-69
2022/06/05 02:51:33;;;;;;;11.38;7.30;;;;;;;;;;10285801;28;20112;-67
2022/06/05 02:56:35;;;;;;;14.20;7.30;;;;;;;;;;10285662;28;20078;-67
2022/06/05 03:06:59;;;;;;;15.05;7.22;;;;;;;;;;10285544;28;20043;-68
2022/06/05 03:12:01;;;;;;;14.32;7.57;;;;;;;;;;10272493;28;20138;-68
2022/06/05 03:17:04;;;;;;;12.52;6.70;;;;;;;;;;10285235;28;20114;-67
2022/06/05 03:22:07;;;;;;;;;;;;;;;;;;10286458;28;20042;-67
2022/06/05 03:27:09;;;;;;;12.57;7.00;;;;;;;;;;10283237;28;19981;-66
2022/06/05 03:32:13;;;;;;;10.02;6.68;;;;;;;;;;10271637;28;20055;-68
2022/06/05 03:37:16;;;;;;;13.68;7.47;;;;;;;;;;10285469;28;20396;-67
2022/06/05 03:42:18;;;;;;;8.98;6.50;;;;;;;;;;10292048;28;20082;-68
2022/06/05 03:47:22;;;;;;;24.05;6.28;;;;;;;;;;10292279;28;20105;-67
2022/06/05 03:52:24;;;;;;;10.45;6.72;;;;;;;;;;10292094;28;20303;-68
2022/06/05 03:57:26;;;;;;;9.40;6.03;;;;;;;;;;10290722;28;20047;-68
2022/06/05 04:02:29;;;;;;;9.48;6.45;;;;;;;;;;10291542;28;20066;-68
2022/06/05 04:07:31;;;;;;;9.57;5.55;;;;;;;;;;10291966;28;20070;-68
2022/06/05 04:12:34;;;;;;;8.35;5.25;;;;;;;;;;10292040;28;20055;-68
2022/06/05 04:17:38;;;;;;;5.43;4.68;;;;;;;;;;10291677;28;20047;-68
2022/06/05 04:22:41;;;;;;;11.80;5.80;;;;;;;;;;10291683;28;20067;-68
2022/06/05 04:27:43;;;;;;;7.55;5.00;;;;;;;;;;10288844;28;20058;-67
2022/06/05 04:32:47;;;;;;;6.13;4.40;;;;;;;;;;10277972;28;20090;-68
2022/06/05 04:37:49;;;;;;;7.72;4.72;;;;;;;;;;10290657;28;20286;-68
2022/06/05 04:42:52;;;;;;;10.23;4.82;;;;;;;;;;10277616;29;20063;-68
2022/06/05 04:47:56;;;;;;;6.25;4.70;;;;;;;;;;10290802;28;20091;-68
2022/06/05 04:52:58;;;;;;;6.82;4.43;;;;;;;;;;10288777;28;20400;-68
2022/06/05 04:58:00;;;;;;;5.97;4.30;;;;;;;;;;10290214;28;20050;-68
2022/06/05 05:03:03;;;;;;;4.78;4.13;;;;;;;;;;10276545;28;20274;-68
2022/06/05 05:08:06;;;;;;;5.00;4.05;;;;;;;;;;10277377;28;20063;-69
2022/06/05 05:13:08;;;;;;;5.53;3.70;;;;;;;;;;10282634;28;20039;-68
2022/06/05 05:18:11;;;;;;;6.30;3.92;;;;;;;;;;10274070;28;20090;-69
2022/06/05 05:23:14;;;;;;;9.18;4.80;;;;;;;;;;10283523;28;20047;-70
2022/06/05 05:28:16;;;;;;;6.05;3.97;;;;;;;;;;10273276;28;20055;-69
2022/06/05 05:33:20;;;;;;;3.80;3.40;;;;;;;;;;10285723;28;20343;-69
2022/06/05 05:38:22;;;;;;;9.52;3.72;;;;;;;;;;10279079;28;20055;-70
2022/06/05 05:43:24;;;;;;;5.13;3.50;;;;;;;;;;10274298;28;20054;-69
2022/06/05 05:48:28;;;;;;;4.68;3.50;;;;;;;;;;10288713;28;20106;-69
2022/06/05 05:53:30;;;;;;;5.20;3.78;;;;;;;;;;10288015;28;20039;-68
2022/06/05 05:58:32;;;;;;;4.82;3.47;;;;;;;;;;10263596;28;20246;-69
2022/06/05 06:03:36;;;;;;;6.65;3.10;;;;;;;;;;10255700;28;20122;-69
2022/06/05 06:08:38;;;;;;;18.15;5.65;;;;;;;;;;10284334;28;20074;-69
2022/06/05 06:13:42;;;;;;;3.83;3.17;;;;;;;;;;10270369;28;20250;-69
2022/06/05 06:18:46;;;;;;;4.55;3.10;;;;;;;;;;10286801;28;20223;-69
2022/06/05 06:23:48;;;;;;;4.13;2.80;;;;;;;;;;10274211;28;20074;-69
2022/06/05 06:28:51;;;;;;;4.57;2.83;;;;;;;;;;10269904;28;20287;-68
2022/06/05 06:33:54;;;;;;;3.70;3.10;;;;;;;;;;10264024;28;20267;-69
2022/06/05 06:38:57;;;;;;;3.80;2.93;;;;;;;;;;10254848;28;20058;-70
2022/06/05 06:44:03;;;;;;;2.78;2.40;;;;;;;;;;10263652;29;20062;-69
2022/06/05 06:49:07;;;;;;;3.30;2.60;;;;;;;;;;10271645;28;20079;-68
2022/06/05 06:54:09;;;;;;;2.58;2.30;;;;;;;;;;10264227;28;20250;-70
2022/06/05 06:59:12;;;;;;;3.10;2.65;;;;;;;;;;10271684;28;20492;-69
2022/06/05 07:04:17;;;;;;;5.82;3.08;;;;;;;;;;10279650;28;20036;-70
2022/06/05 07:09:19;;;;;;;5.20;3.72;;;;;;;;;;10263837;28;20082;-69
2022/06/05 07:14:22;;;;;;;2.20;2.10;;;;;;;;;;10276321;28;20047;-70
2022/06/05 07:19:26;;;;;;;1.30;1.30;;;;;;;;;;10268074;28;20058;-67
2022/06/05 07:24:28;;;;;;;1.80;1.80;;;;;;;;;;10266325;28;20059;-70
2022/06/05 07:29:31;;;;;;;2.30;2.30;;;;;;;;;;10270250;28;20055;-68
2022/06/05 07:34:36;;;;;;;2.97;2.88;;;;;;;;;;10261560;28;20129;-71
2022/06/05 07:39:38;;;;;;;4.00;3.90;;;;;;;;;;10269737;28;20075;-72
2022/06/05 07:44:40;;;;;;;5.00;4.90;;;;;;;;;;10282859;28;20262;-76
2022/06/05 07:49:44;;;;;;;6.53;6.32;;;;;;;;;;10260556;28;20412;-70
2022/06/05 07:54:47;;;;;;;7.75;7.45;;;;;;;;;;10272211;29;20717;-70
2022/06/05 07:59:50;;;;;;;9.52;9.13;;;;;;;;;;10261830;29;20334;-70
2022/06/05 08:04:55;;;;;;;11.15;10.65;;;;;;;;;;10259178;28;20090;-70
2022/06/05 08:09:59;;;;;;;13.82;13.23;;;;;;;;;;10271370;28;20102;-68
2022/06/05 08:15:04;;;;;;;16.40;15.60;;;;;;;;;;10260807;28;20060;-70
2022/06/05 08:20:10;;;;;;;20.08;19.08;;;;;;;;;;10282327;28;20125;-70
2022/06/05 08:25:14;;;;;;;24.90;23.60;;;;;;;;;;10285665;28;20050;-69
2022/06/05 08:30:17;;;;;;;29.85;28.25;;;;;;;;;;10271305;28;20063;-69
2022/06/05 08:35:20;;;;;;;34.92;33.03;;;;;;;;;;10272818;28;20087;-69
2022/06/05 08:45:53;;;;;;;50.30;47.30;;;;;;;;;;10275048;28;20067;-70
2022/06/05 08:51:02;;;;;;;58.20;54.60;;;;;;;;;;10289684;28;20082;-69
2022/06/05 08:56:06;;;;;;;63.30;59.30;;;;;;;;;;10286992;28;20058;-70
2022/06/05 09:01:13;;;;;;;65.80;61.60;;;;;;;;;;10290237;28;20090;-69
2022/06/05 09:06:23;;;;;;;66.97;62.67;;;;;;;;;;10287417;28;20054;-68
2022/06/05 09:11:45;;;;;;;60.92;57.15;;;;;;;;;;10281691;28;20047;-69
2022/06/05 09:16:51;;;;;;;40.83;38.53;;;;;;;;;;10283132;28;20070;-69
2022/06/05 09:22:02;;;;;;;25.30;24.00;;;;;;;;;;10285967;28;20347;-68
2022/06/05 09:27:21;;;;;;;16.98;16.17;;;;;;;;;;10268960;28;20055;-69
2022/06/05 09:32:38;;;;;;;;;;;;;;;;;;10266217;28;20062;-68
2022/06/05 09:37:48;;;;;;;8.43;8.13;;;;;;;;;;10254065;28;19957;-69
2022/06/05 09:43:00;;;;;;;;;;;;;;;;;;10274883;28;20066;-68
2022/06/05 09:48:14;;;;;;;0.30;0.30;;;;;;;;;;10274752;29;19930;-68
2022/06/05 09:53:24;;;;;;;0.10;0.10;;;;;;;;;;10271650;28;20059;-68
2022/06/05 09:58:51;;;;;;;2.70;2.17;;;;;;;;;;10286740;28;20212;-67
2022/06/05 10:03:54;;;;;;;2.40;1.73;;;;;;;;;;10286767;28;20087;-68
2022/06/05 10:09:08;;;;;;;3.15;1.70;;;;;;;;;;10287097;28;20047;-69
2022/06/05 10:14:24;;;;;;;4.07;1.80;;;;;;;;;;10286348;28;20329;-69
2022/06/05 10:19:42;;;;;;;3.85;2.13;;;;;;;;;;10286021;28;20339;-68
2022/06/05 10:24:52;;;;;;;3.90;2.00;;;;;;;;;;10286969;28;20318;-68
2022/06/05 10:29:57;;;;;;;2.15;1.80;;;;;;;;;;10277849;28;20055;-68
2022/06/05 10:35:05;;;;;;;8.82;1.92;;;;;;;;;;10285888;28;20082;-68
2022/06/05 10:40:20;;;;;;;2.40;1.67;;;;;;;;;;10284644;28;20110;-68
2022/06/05 10:45:39;;;;;;;2.42;1.40;;;;;;;;;;10286356;28;20051;-67
2022/06/05 10:50:48;;;;;;;2.00;1.80;;;;;;;;;;10285061;28;20042;-68
2022/06/05 10:56:06;;;;;;;2.33;1.80;;;;;;;;;;10272301;28;20051;-68
2022/06/05 11:01:32;;;;;;;3.53;2.38;;;;;;;;;;10283630;28;20043;-68
2022/06/05 11:06:43;;;;;;;1.90;1.60;;;;;;;;;;10284771;28;20043;-68
2022/06/05 11:17:27;;;;;;;6.88;2.60;;;;;;;;;;10272315;29;20238;-70
2022/06/05 11:22:30;;;;;;;1.75;1.42;;;;;;;;;;10284874;28;20303;-68
2022/06/05 11:27:41;;;;;;;4.40;1.60;;;;;;;;;;10283801;28;20055;-68
2022/06/05 11:32:49;;;;;;;1.33;1.23;;;;;;;;;;10284328;28;20051;-67
2022/06/05 11:37:59;;;;;;;2.25;1.33;;;;;;;;;;10286152;28;20345;-70
2022/06/05 11:43:18;;;;;;;2.55;1.33;;;;;;;;;;10285369;28;20059;-69
2022/06/05 11:48:25;;;;;;;2.45;1.75;;;;;;;;;;10284734;28;20085;-69
2022/06/05 11:53:35;;;;;;;4.20;1.35;;;;;;;;;;10283380;28;20066;-72
2022/06/05 11:58:44;;;;;;;1.60;1.20;;;;;;;;;;10284921;28;20039;-70
2022/06/05 12:03:54;;;;;;;1.00;1.00;;;;;;;;;;10292032;28;20043;-71
2022/06/05 12:09:00;;;;;;;1.75;1.48;;;;;;;;;;10291569;28;20066;-70
2022/06/05 12:14:18;;;;;;;0.93;0.90;;;;;;;;;;10290983;28;20074;-74
2022/06/05 12:19:32;;;;;;;1.38;1.20;;;;;;;;;;10277918;28;20050;-69
2022/06/05 12:24:43;;;;;;;1.23;1.13;;;;;;;;;;10291604;28;20062;-70
2022/06/05 12:29:51;;;;;;;2.65;1.30;;;;;;;;;;10282129;28;20082;-70
2022/06/05 12:35:01;;;;;;;1.42;1.33;;;;;;;;;;10291225;28;20278;-71
2022/06/05 12:40:05;;;;;;;1.42;1.30;;;;;;;;;;10291144;28;20055;-71
2022/06/05 12:45:19;;;;;;;3.67;1.45;;;;;;;;;;10277759;28;20046;-70
2022/06/05 12:50:35;;;;;;;3.92;1.60;;;;;;;;;;10277411;28;20328;-71
2022/06/05 12:55:44;;;;;;;1.90;1.33;;;;;;;;;;10290317;28;20058;-72
2022/06/05 13:00:57;;;;;;;1.55;1.20;;;;;;;;;;10302295;28;20335;-72
2022/06/05 13:06:05;;;;;;;2.28;1.40;;;;;;;;;;10289431;28;20046;-71
2022/06/05 13:11:14;;;;;;;5.97;1.77;;;;;;;;;;10288646;28;20358;-71
2022/06/05 13:16:31;;;;;;;4.03;1.50;;;;;;;;;;10289007;28;20054;-70
2022/06/05 13:21:36;;;;;;;9.25;1.30;;;;;;;;;;10289146;28;20062;-72
2022/06/05 13:26:47;;;;;;;3.40;2.15;;;;;;;;;;10288757;28;20062;-71
2022/06/05 13:32:03;;;;;;;2.67;1.60;;;;;;;;;;10274540;28;20074;-71
2022/06/05 13:37:11;;;;;;;2.40;1.50;;;;;;;;;;10285210;28;20237;-70
2022/06/05 13:42:16;;;;;;;1.80;1.10;;;;;;;;;;10282972;28;20049;-69
2022/06/05 13:47:32;;;;;;;13.80;9.90;;;;;;;;;;10285628;28;20070;-70
2022/06/05 13:52:38;;;;;;;2.25;0.90;;;;;;;;;;10282980;28;20249;-70
2022/06/05 13:57:53;;;;;;;4.00;1.10;;;;;;;;;;10287204;28;20082;-70
2022/06/05 14:03:04;;;;;;;2.67;1.38;;;;;;;;;;10284710;28;20043;-70
2022/06/05 14:08:11;;;;;;;3.72;0.80;;;;;;;;;;10282556;28;20133;-71
2022/06/05 14:13:16;;;;;;;0.98;0.80;;;;;;;;;;10284778;28;20043;-71
2022/06/05 14:18:31;;;;;;;2.00;1.17;;;;;;;;;;10284002;28;20083;-72
2022/06/05 14:23:33;;;;;;;0.95;0.88;;;;;;;;;;10283057;28;20047;-71
2022/06/05 14:28:39;;;;;;;1.50;1.02;;;;;;;;;;10270341;29;20121;-70
2022/06/05 14:33:46;;;;;;;1.33;1.23;;;;;;;;;;10269578;28;20054;-72
2022/06/05 14:38:52;;;;;;;2.42;1.20;;;;;;;;;;10280206;28;20078;-72
2022/06/05 14:44:00;;;;;;;1.35;1.20;;;;;;;;;;10280908;28;20051;-71
2022/06/05 14:49:12;;;;;;;1.40;1.00;;;;;;;;;;10277031;28;20043;-73
2022/06/05 14:57:51;;;;;;;2.17;1.27;;;;;;;;;;10278826;28;20339;-72
2022/06/05 14:59:51;;;;;;;2.72;1.40;;;;;;;;;;10269800;28;20105;-72
2022/06/05 15:05:05;;;;;;;2.85;1.40;;;;;;;;;;10273790;28;20114;-71
2022/06/05 15:10:29;;;;;;;1.40;1.30;;;;;;;;;;10264352;28;20222;-73
2022/06/05 15:15:35;;;;;;;2.05;1.23;;;;;;;;;;10267736;28;20044;-72
2022/06/05 15:20:54;;;;;;;1.65;1.10;;;;;;;;;;10282697;28;20055;-72
2022/06/05 15:26:07;;;;;;;2.15;1.35;;;;;;;;;;10274118;28;20397;-71
2022/06/05 15:31:17;;;;;;;1.00;1.00;;;;;;;;;;10268939;28;20093;-72
2022/06/05 15:36:29;;;;;;;2.13;1.52;;;;;;;;;;10287006;28;20047;-72
2022/06/05 15:41:52;;;;;;;1.88;1.38;;;;;;;;;;10280504;28;20058;-73
2022/06/05 15:47:06;;;;;;;1.67;1.40;;;;;;;;;;10286596;28;20109;-72
2022/06/05 15:52:30;;;;;;;2.63;1.27;;;;;;;;;;10279109;28;20051;-72
2022/06/05 16:03:02;;;;;;;1.80;1.15;;;;;;;;;;10286407;28;19950;-72
2022/06/05 16:08:13;;;;;;;3.58;1.38;;;;;;;;;;10290148;28;20050;-71
2022/06/05 16:13:16;;;;;;;3.00;1.25;;;;;;;;;;10289458;28;20039;-69
2022/06/05 16:18:29;;;;;;;1.40;1.17;;;;;;;;;;10279374;28;20039;-68
2022/06/05 16:24:02;;;;;;;2.20;1.03;;;;;;;;;;10281854;28;20070;-74
2022/06/05 16:29:08;;;;;;;1.00;0.93;;;;;;;;;;10282160;28;20068;-73
2022/06/05 16:34:13;;;;;;;2.38;1.45;;;;;;;;;;10281355;28;20046;-69
2022/06/05 16:39:22;;;;;;;2.25;1.67;;;;;;;;;;10290058;28;20055;-71
2022/06/05 16:44:29;;;;;;;1.77;1.48;;;;;;;;;;10282443;28;20357;-72
2022/06/05 16:49:39;;;;;;;2.00;1.58;;;;;;;;;;10291160;28;20250;-71
2022/06/05 16:54:44;;;;;;;2.13;1.40;;;;;;;;;;10290534;28;20047;-72
2022/06/05 17:00:17;;;;;;;1.70;1.60;;;;;;;;;;10290196;28;20043;-72
2022/06/05 17:05:26;;;;;;;1.65;1.55;;;;;;;;;;10279696;28;20038;-71
2022/06/05 17:10:49;;;;;;;1.88;1.52;;;;;;;;;;10287643;28;20335;-71
2022/06/05 17:15:55;;;;;;;9.88;2.00;;;;;;;;;;10283796;28;20046;-71
2022/06/05 17:21:02;;;;;;;2.17;1.40;;;;;;;;;;10287679;28;20050;-68
2022/06/05 17:26:20;;;;;;;5.00;1.92;;;;;;;;;;10280002;28;20090;-70
2022/06/05 17:31:33;;;;;;;1.88;1.60;;;;;;;;;;10258034;28;20203;-72
2022/06/05 17:37:00;;;;;;;7.00;1.80;;;;;;;;;;10285078;28;20280;-69
2022/06/05 17:42:15;;;;;;;5.10;1.90;;;;;;;;;;10269390;28;20058;-69
2022/06/05 17:47:32;;;;;;;3.03;1.88;;;;;;;;;;10288166;28;20238;-71
2022/06/05 17:52:35;;;;;;;5.07;2.47;;;;;;;;;;10278433;28;20070;-71
2022/06/05 17:57:41;;;;;;;3.70;1.97;;;;;;;;;;10285132;28;20082;-71
2022/06/05 18:02:51;;;;;;;11.65;1.90;;;;;;;;;;10279895;28;20051;-69
2022/06/05 18:07:58;;;;;;;4.10;1.80;;;;;;;;;;10285555;28;20065;-69
2022/06/05 18:13:02;;;;;;;5.28;1.90;;;;;;;;;;10286297;28;20071;-71
2022/06/05 18:18:07;;;;;;;3.15;1.60;;;;;;;;;;10285783;28;20047;-68
2022/06/05 18:23:21;;;;;;;6.07;2.17;;;;;;;;;;10278565;28;20054;-68
2022/06/05 18:28:29;;;;;;;6.83;1.83;;;;;;;;;;10280598;28;20058;-68
2022/06/05 18:33:51;;;;;;;3.13;1.55;;;;;;;;;;10268613;28;20070;-68
2022/06/05 18:38:57;;;;;;;6.70;1.92;;;;;;;;;;10268706;29;20137;-66
2022/06/05 18:44:01;;;;;;;8.38;2.40;;;;;;;;;;10276439;28;20077;-67
2022/06/05 18:49:03;;;;;;;4.97;2.85;;;;;;;;;;10284831;28;20054;-67
2022/06/05 18:54:06;;;;;;;11.35;3.65;;;;;;;;;;10284330;28;20073;-68
2022/06/05 18:59:24;;;;;;;13.90;5.07;;;;;;;;;;10284289;28;20286;-66
2022/06/05 19:04:26;;;;;;;4.80;2.97;;;;;;;;;;10271085;28;20077;-68
2022/06/05 19:09:31;;;;;;;31.10;16.88;;;;;;;;;;10268535;29;20059;-66
2022/06/05 19:14:39;;;;;;;10.52;2.20;;;;;;;;;;10269608;28;20056;-67
2022/06/05 19:19:46;;;;;;;25.83;11.02;;;;;;;;;;10282764;28;20385;-66
2022/06/05 19:24:52;;;;;;;21.83;9.85;;;;;;;;;;10267531;29;20102;-67
2022/06/05 19:30:00;;;;;;;43.60;13.35;;;;;;;;;;10273485;29;20074;-66
2022/06/05 19:35:06;;;;;;;28.08;12.32;;;;;;;;;;10283512;28;20223;-68
2022/06/05 19:40:12;;;;;;;30.05;14.23;;;;;;;;;;10283554;28;20082;-67
2022/06/05 19:45:35;;;;;;;37.50;14.88;;;;;;;;;;10254952;29;20051;-67
2022/06/05 19:50:41;;;;;;;17.98;8.95;;;;;;;;;;10283267;28;20051;-67
2022/06/05 19:55:49;;;;;;;14.25;7.60;;;;;;;;;;10268073;28;20116;-67
2022/06/05 20:01:17;;;;;;;14.90;7.07;;;;;;;;;;10281988;29;20086;-67
2022/06/05 20:06:21;;;;;;;12.63;4.97;;;;;;;;;;10282576;28;20048;-67
2022/06/05 20:11:29;;;;;;;9.98;5.07;;;;;;;;;;10267621;29;20074;-67
2022/06/05 20:21:56;;;;;;;8.45;3.55;;;;;;;;;;10262624;28;20051;-66
2022/06/05 20:27:02;;;;;;;3.70;2.67;;;;;;;;;;10276831;28;20240;-66
2022/06/05 20:32:07;;;;;;;7.88;3.45;;;;;;;;;;10269097;28;20074;-66
2022/06/05 20:37:18;;;;;;;8.45;3.63;;;;;;;;;;10280749;28;20071;-66
2022/06/05 20:42:25;;;;;;;9.32;4.25;;;;;;;;;;10275567;28;20098;-67
2022/06/05 20:47:34;;;;;;;6.95;4.18;;;;;;;;;;10288070;28;20043;-67
2022/06/05 20:52:41;;;;;;;8.70;4.45;;;;;;;;;;10281722;28;20049;-67
2022/06/05 20:57:48;;;;;;;8.40;4.38;;;;;;;;;;10288908;28;20067;-66
2022/06/05 21:08:19;;;;;;;7.97;4.20;;;;;;;;;;10286313;28;20035;-67
2022/06/05 21:18:42;;;;;;;5.72;3.95;;;;;;;;;;10279382;28;20138;-67
2022/06/05 21:23:45;;;;;;;5.70;4.20;;;;;;;;;;10287373;28;20078;-67
2022/06/05 21:28:49;;;;;;;9.80;4.63;;;;;;;;;;10281321;28;20074;-67
2022/06/05 21:33:55;;;;;;;11.63;5.75;;;;;;;;;;10286746;28;20054;-67
2022/06/05 21:39:05;;;;;;;8.30;5.10;;;;;;;;;;10275599;28;20175;-67
2022/06/05 21:44:18;;;;;;;16.50;6.65;;;;;;;;;;10288393;28;20071;-67
2022/06/05 21:49:22;;;;;;;10.57;5.47;;;;;;;;;;10288549;28;20073;-67
2022/06/05 21:54:33;;;;;;;14.52;6.13;;;;;;;;;;10274851;28;20142;-67
2022/06/05 21:59:35;;;;;;;6.65;4.43;;;;;;;;;;10275568;28;20051;-66
2022/06/05 22:04:38;;;;;;;7.57;4.40;;;;;;;;;;10286225;28;20094;-66
2022/06/05 22:09:42;;;;;;;8.27;4.70;;;;;;;;;;10275557;28;20089;-66
2022/06/05 22:14:45;;;;;;;7.90;4.28;;;;;;;;;;10287802;28;20055;-66
2022/06/05 22:19:49;;;;;;;6.00;4.22;;;;;;;;;;10287194;28;20055;-66
2022/06/05 22:24:51;;;;;;;9.55;4.70;;;;;;;;;;10275120;28;20063;-66
2022/06/05 22:29:54;;;;;;;10.88;4.95;;;;;;;;;;10278924;28;20094;-67
2022/06/05 22:35:00;;;;;;;8.32;5.07;;;;;;;;;;10274214;28;20106;-66
2022/06/05 22:40:02;;;;;;;10.43;5.63;;;;;;;;;;10286874;28;20070;-66
2022/06/05 22:45:05;;;;;;;8.05;5.00;;;;;;;;;;10285852;28;20357;-66
2022/06/05 22:50:13;;;;;;;8.52;5.07;;;;;;;;;;10273384;28;20349;-65
2022/06/05 22:55:15;;;;;;;14.10;6.13;;;;;;;;;;10285499;28;20051;-66
2022/06/05 23:00:18;;;;;;;13.35;5.80;;;;;;;;;;10286788;28;20055;-66
2022/06/05 23:05:22;;;;;;;11.07;4.93;;;;;;;;;;10272733;28;20051;-66
2022/06/05 23:10:24;;;;;;;8.57;5.03;;;;;;;;;;10285851;28;20081;-67
2022/06/05 23:15:26;;;;;;;10.27;5.63;;;;;;;;;;10285885;28;20066;-66
2022/06/05 23:20:30;;;;;;;9.15;4.85;;;;;;;;;;10272661;28;20082;-66
2022/06/05 23:25:32;;;;;;;8.15;5.43;;;;;;;;;;10272106;28;20069;-65
2022/06/05 23:30:35;;;;;;;7.13;4.78;;;;;;;;;;10275276;28;20330;-66
2022/06/05 23:35:38;;;;;;;10.18;5.28;;;;;;;;;;10272424;28;20051;-65
2022/06/05 23:40:41;;;;;;;10.50;5.05;;;;;;;;;;10284960;29;20063;-66
2022/06/05 23:45:43;;;;;;;11.20;5.15;;;;;;;;;;10286022;29;20098;-66
2022/06/05 23:50:55;;;;;;;12.50;6.32;;;;;;;;;;10285349;28;20040;-66
2022/06/05 23:55:57;;;;;;;6.95;4.40;;;;;;;;;;10274244;28;20047;-66
